Terminal Aerodrome Forecast
Issued by NWS Norman, OK

Home | Current Version | Previous Version | Text Only | Print | Product List | Glossary On
Versions: 1 2 3 4 5 6 7 8 9 10 11 12 13 14 15 16 17 18 19 20 21 22 23 24 25 26
914
FTUS44 KOUN 271126
TAFOKC
TAF
KOKC 271126Z 2712/2812 34014G21KT P6SM BKN010
     FM271800 36010KT P6SM BKN035
     FM272100 01008KT P6SM FEW250
     FM280700 12006KT P6SM FEW150 SCT250=

USA.gov is the U.S. government's official web portal to all federal, state and local government web resources and services.